• Join FlightAware (Why Join?)
  • Login
  • US Flag 
11:06AM EDT


 

Airport Tracker/Info


-or-


 

Live Flight TrackerFlight Track Log ✈ TGW974 ✈ 01-May-2012 ✈ YMML / MEL - YBCG / OOL

Flight Track Log - Related Links

Times and Time Zones

All times are in EDT time to prevent confusion due to time zone crossing. See the TGW974 flight status page for this flight to view local times or setup timezone preferences in your user account.

Time Position Orientation Groundspeed Altitude Reporting Facility
EDT Latitude Longitude Course Direction KTS MPH feet Rate Location/Type
10:58PM -37.6313 144.8308 352° North 166 191 3,100  Level Aus ATC (RADAR)
10:59PM -37.5978 144.8245 20° North 216 249 4,600 3,180 Climbing Aus ATC (RADAR)
11:00PM -37.5502 144.8464 26° Northeast 254 292 7,400 3,600 Climbing Aus ATC (RADAR)
11:01PM -37.4839 144.8878 28° Northeast 276 318 10,900 2,880 Climbing Aus ATC (RADAR)
11:01PM -37.4186 144.9315 37° Northeast 336 387 12,700 2,760 Climbing Aus ATC (RADAR)
11:02PM -37.3431 145.0023 36° Northeast 346 398 16,000 3,000 Climbing Aus ATC (RADAR)
11:03PM -37.2767 145.0628 36° Northeast 359 413 18,300 2,700 Climbing Aus ATC (RADAR)
11:04PM -37.2294 145.1064 36° Northeast 365 420 19,900 2,580 Climbing Aus ATC (RADAR)
11:05PM -37.1668 145.1637 36° Northeast 375 432 21,800 2,340 Climbing Aus ATC (RADAR)
11:06PM -37.0816 145.2416 39° Northeast 386 444 24,000 1,860 Climbing Aus ATC (RADAR)
11:07PM -36.9955 145.3298 40° Northeast 409 471 25,600 2,100 Climbing Aus ATC (RADAR)
11:08PM -36.9094 145.4189 39° Northeast 400 460 28,200 1,740 Climbing Aus ATC (RADAR)
11:08PM -36.8424 145.4869 40° Northeast 424 488 28,700 1,020 Climbing Aus ATC (RADAR)
11:09PM -36.7889 145.5426 39° Northeast 431 496 29,600 1,260 Climbing Aus ATC (RADAR)
11:10PM -36.7173 145.6157 39° Northeast 448 516 30,400 1,320 Climbing Aus ATC (RADAR)
11:11PM -36.6205 145.7140 39° Northeast 452 520 32,000 1,440 Climbing Aus ATC (RADAR)
11:12PM -36.4911 145.8460 40° Northeast 458 527 33,800 1,200 Climbing Aus ATC (RADAR)
11:13PM -36.3929 145.9465 39° Northeast 463 533 34,900 1,080 Climbing Aus ATC (RADAR)
11:14PM -36.3257 146.0141 39° Northeast 470 541 35,600 1,080 Climbing Aus ATC (RADAR)
11:14PM -36.2666 146.0742 39° Northeast 474 545 36,300 1,080 Climbing Aus ATC (RADAR)
11:15PM -36.2076 146.1336 40° Northeast 471 542 36,900 1,200 Climbing Aus ATC (RADAR)
11:15PM -36.1488 146.1938 39° Northeast 471 542 37,700 1,200 Climbing Aus ATC (RADAR)
11:17PM -36.0312 146.3111 39° Northeast 464 534 39,000 960 Climbing Aus ATC (RADAR)
11:17PM -35.9810 146.3613 39° Northeast 465 535 39,300 180 Climbing Aus ATC (RADAR)
11:18PM -35.8802 146.4615 39° Northeast 468 539 39,300  Level Aus ATC (RADAR)
11:19PM -35.8041 146.5369 39° Northeast 468 539 39,300  Level Aus ATC (RADAR)
11:19PM -35.7446 146.5960 39° Northeast 470 541 39,300  Level Aus ATC (RADAR)
11:20PM -35.6682 146.6716 39° Northeast 470 541 39,300  Level Aus ATC (RADAR)
11:22PM -35.5149 146.8230 38° Northeast 471 542 39,300  Level Aus ATC (RADAR)
11:23PM -35.4288 146.9066 39° Northeast 474 545 39,300  Level Aus ATC (RADAR)
11:23PM -35.3686 146.9660 38° Northeast 476 548 39,300  Level Aus ATC (RADAR)
11:24PM -35.2906 147.0418 38° Northeast 478 550 39,300  Level Aus ATC (RADAR)
11:24PM -35.2298 147.1007 39° Northeast 478 550 39,300  Level Aus ATC (RADAR)
11:25PM -35.1686 147.1610 38° Northeast 478 550 39,300  Level Aus ATC (RADAR)
11:26PM -35.1076 147.2203 38° Northeast 479 551 39,300  Level Aus ATC (RADAR)
11:27PM -34.9938 147.3301 38° Northeast 482 555 39,300  Level Aus ATC (RADAR)
11:27PM -34.9147 147.4058 38° Northeast 482 555 39,300  Level Aus ATC (RADAR)
11:28PM -34.8533 147.4651 38° Northeast 482 555 39,300  Level Aus ATC (RADAR)
11:29PM -34.7744 147.5409 38° Northeast 482 555 39,300  Level Aus ATC (RADAR)
11:29PM -34.7130 147.5995 38° Northeast 479 551 39,300  Level Aus ATC (RADAR)
11:30PM -34.6513 147.6584 38° Northeast 484 557 39,300  Level Aus ATC (RADAR)
11:31PM -34.5812 147.7256 38° Northeast 478 550 39,300  Level Aus ATC (RADAR)
11:31PM -34.5191 147.7844 38° Northeast 485 558 39,300  Level Aus ATC (RADAR)
11:33PM -34.3508 147.9444 38° Northeast 484 557 39,300 -60 Level Aus ATC (RADAR)
11:34PM -34.2441 148.0447 38° Northeast 485 558 39,200 -60 Descending Aus ATC (RADAR)
11:34PM -34.1641 148.1202 38° Northeast 485 558 39,200  Level Aus ATC (RADAR)
11:35PM -34.1020 148.1787 38° Northeast 484 557 39,200 60 Level Aus ATC (RADAR)
11:36PM -34.0177 148.2582 38° Northeast 490 564 39,300  Climbing Aus ATC (RADAR)
11:37PM -33.8751 148.3911 38° Northeast 487 560 39,300  Level Aus ATC (RADAR)
11:38PM -33.8119 148.4495 38° Northeast 491 565 39,300  Level Aus ATC (RADAR)
11:38PM -33.7495 148.5079 38° Northeast 490 564 39,300  Level Aus ATC (RADAR)
11:39PM -33.6690 148.5826 38° Northeast 489 563 39,300  Level Aus ATC (RADAR)
11:40PM -33.5615 148.6825 37° Northeast 490 564 39,300  Level Aus ATC (RADAR)
11:41PM -33.4804 148.7570 37° Northeast 489 563 39,300  Level Aus ATC (RADAR)
11:41PM -33.4169 148.8152 38° Northeast 493 567 39,300  Level Aus ATC (RADAR)
11:43PM -33.3016 148.9218 37° Northeast 492 566 39,300  Level Aus ATC (RADAR)
11:44PM -33.1932 149.0211 37° Northeast 493 567 39,300  Level Aus ATC (RADAR)
11:44PM -33.1111 149.0962 37° Northeast 494 568 39,300  Level Aus ATC (RADAR)
11:45PM -33.0474 149.1538 37° Northeast 493 567 39,300  Level Aus ATC (RADAR)
11:45PM -32.9837 149.2117 37° Northeast 496 571 39,300  Level Aus ATC (RADAR)
11:46PM -32.9200 149.2689 37° Northeast 494 568 39,300  Level Aus ATC (RADAR)
11:47PM -32.8564 149.3264 37° Northeast 494 568 39,300  Level Aus ATC (RADAR)
11:48PM -32.7380 149.4336 37° Northeast 495 570 39,300  Level Aus ATC (RADAR)
11:49PM -32.6286 149.5319 37° Northeast 495 570 39,300  Level Aus ATC (RADAR)
11:49PM -32.5466 149.6058 36° Northeast 496 571 39,300  Level Aus ATC (RADAR)
11:50PM -32.4814 149.6611 35° Northeast 496 571 39,300  Level Aus ATC (RADAR)
11:51PM -32.3969 149.7307 35° Northeast 495 570 39,300  Level Aus ATC (RADAR)
11:52PM -32.2853 149.8243 35° Northeast 493 567 39,300  Level Aus ATC (RADAR)
11:53PM -32.1738 149.9176 35° Northeast 492 566 39,300  Level Aus ATC (RADAR)
11:54PM -32.0624 150.0103 35° Northeast 491 565 39,300  Level Aus ATC (RADAR)
11:54PM -31.9789 150.0800 35° Northeast 491 565 39,300  Level Aus ATC (RADAR)
11:55PM -31.9135 150.1343 35° Northeast 494 568 39,300  Level Aus ATC (RADAR)
11:56PM -31.8299 150.2036 35° Northeast 494 568 39,300  Level Aus ATC (RADAR)
11:57PM -31.7184 150.2954 35° Northeast 490 564 39,300  Level Aus ATC (RADAR)
11:58PM -31.5934 150.3981 35° Northeast 482 555 39,300  Level Aus ATC (RADAR)
11:59PM -31.5001 150.4748 35° Northeast 480 552 39,300  Level Aus ATC (RADAR)
12:00AM -31.4028 150.5549 35° Northeast 491 565 39,300  Level Aus ATC (RADAR)
12:00AM -31.3379 150.6081 35° Northeast 492 566 39,300  Level Aus ATC (RADAR)
12:01AM -31.2361 150.6915 34° Northeast 490 564 39,300  Level Aus ATC (RADAR)
12:02AM -31.1708 150.7439 39° Northeast 490 564 39,300  Level Aus ATC (RADAR)
12:03AM -30.9993 150.9072 47° Northeast 486 559 39,300  Level Aus ATC (RADAR)
12:04AM -30.9168 151.0110 46° Northeast 500 575 39,300  Level Aus ATC (RADAR)
12:05AM -30.8091 151.1422 46° Northeast 488 562 39,300  Level Aus ATC (RADAR)
12:06AM -30.7490 151.2151 46° Northeast 502 578 39,300  Level Aus ATC (RADAR)
12:07AM -30.6886 151.2876 46° Northeast 490 564 39,300  Level Aus ATC (RADAR)
12:08AM -30.5925 151.4038 46° Northeast 488 562 39,300  Level Aus ATC (RADAR)
12:08AM -30.5405 151.4671 46° Northeast 502 578 39,300  Level Aus ATC (RADAR)
12:09AM -30.4361 151.5928 46° Northeast 504 580 39,300  Level Aus ATC (RADAR)
12:10AM -30.3551 151.6895 46° Northeast 505 581 39,300  Level Aus ATC (RADAR)
12:11AM -30.2993 151.7560 46° Northeast 502 578 39,300  Level Aus ATC (RADAR)
12:11AM -30.2185 151.8522 46° Northeast 497 572 39,300  Level Aus ATC (RADAR)
12:12AM -30.1621 151.9198 46° Northeast 501 577 39,300  Level Aus ATC (RADAR)
12:13AM -30.0410 152.0639 46° Northeast 502 578 39,300  Level Aus ATC (RADAR)
12:14AM -29.9476 152.1744 46° Northeast 485 558 39,300  Level Aus ATC (RADAR)
12:15AM -29.8719 152.2645 46° Northeast 504 580 39,300  Level Aus ATC (RADAR)
12:16AM -29.8155 152.3313 46° Northeast 498 573 39,300 -180 Level Aus ATC (RADAR)
12:16AM -29.7349 152.4265 46° Northeast 503 579 39,100 -1,260 Descending Aus ATC (RADAR)
12:18AM -29.6058 152.5782 45° Northeast 503 579 36,700 -2,100 Descending Aus ATC (RADAR)
12:19AM -29.5268 152.6687 45° Northeast 485 558 34,600 -2,640 Descending Aus ATC (RADAR)
12:19AM -29.4598 152.7460 47° Northeast 491 565 32,800 -2,760 Descending Aus ATC (RADAR)
12:20AM -29.3725 152.8519 44° Northeast 516 594 30,600 -2,520 Descending Aus ATC (RADAR)
12:21AM -29.3142 152.9171 45° Northeast 501 577 29,200 -2,400 Descending Aus ATC (RADAR)
12:22AM -29.2168 153.0301 45° Northeast 498 573 26,800 -2,220 Descending Aus ATC (RADAR)
12:22AM -29.1692 153.0852 45° Northeast 484 557 25,900 -2,460 Descending Aus ATC (RADAR)
12:24AM -28.9720 153.3099 45° Northeast 420 483 20,200 -2,580 Descending Aus ATC (RADAR)
12:25AM -28.8955 153.3972 39° Northeast 403 464 17,900 -2,400 Descending Aus ATC (RADAR)
12:27AM -28.7879 153.4954 16° North 372 428 15,100 -2,460 Descending Aus ATC (RADAR)
12:27AM -28.7216 153.5165 21° North 383 441 13,400 -2,040 Descending Aus ATC (RADAR)
12:29AM -28.5837 153.5771 22° Northeast 357 411 10,900 -1,440 Descending Aus ATC (RADAR)
12:29AM -28.5239 153.6043 18° North 315 362 10,300 -1,140 Descending Aus ATC (RADAR)
12:30AM -28.4552 153.6295 18° North 292 336 9,100 -1,080 Descending Aus ATC (RADAR)
12:31AM -28.3884 153.6539 18° North 265 305 8,400 -720 Descending Aus ATC (RADAR)
12:32AM -28.3450 153.6703 18° North 245 282 8,000 -1,080 Descending Aus ATC (RADAR)
12:33AM -28.2977 153.6882 345° North 239 275 6,900 -1,500 Descending Aus ATC (RADAR)
12:34AM -28.2390 153.6706 332° Northwest 252 290 5,500 -1,500 Descending Aus ATC (RADAR)
12:34AM -28.1923 153.6429 334° Northwest 253 291 4,400 -1,380 Descending Aus ATC (RADAR)
12:35AM -28.1552 153.6222 330° Northwest 252 290 3,700 -1,320 Descending Aus ATC (RADAR)
12:36AM -28.1048 153.5897 292° West 248 285 2,600 -1,020 Descending Aus ATC (RADAR)
12:36AM -28.0898 153.5471 271° West 238 274 2,300 -720 Descending Aus ATC (RADAR)
12:37AM -28.0893 153.4919 231° Southwest 205 236 1,600 -720 Descending Aus ATC (RADAR)
12:38AM -28.1042 153.4707 155° Southeast 170 196 1,400 -720 Descending Aus ATC (RADAR)
12:39AM -28.1389 153.4892 151° Southeast 114 131 500 -780 Descending Aus ATC (RADAR)
12:39AM -28.1528 153.4979 151° Southeast 112 129 200 -420 Descending Aus ATC (RADAR)
12:40AM -28.1670 153.5070 151° Southeast 81 93 100 -180 Descending Aus ATC (RADAR)